Terminal Aerodrome Forecast
Issued by NWS St Louis, MO

Home | Current Version | Previous Version | Text Only | Print | Product List | Glossary On
Versions: 1 2 3 4 5 6 7 8 9 10 11 12 13 14 15 16 17 18 19 20
299
FTUS43 KLSX 261139
TAFCOU
TAF
KCOU 261139Z 2612/2712 16007KT P6SM BKN045
     FM261700 16008KT 5SM -RA VCTS OVC040CB
      TEMPO 2617/2619 VRB25G35KT 2SM +TSRA OVC020CB
     FM262000 15006KT P6SM SCT040
     FM270400 12008KT 3SM -RA VCTS OVC040CB=

USA.gov is the U.S. government's official web portal to all federal, state and local government web resources and services.